Time;durP1;ratioP1;P1;durP2;ratioP2;P2;SDS_P1;SDS_P2;PMS_P1;PMS_P2;Temp;Humidity;BMP_temperature;BMP_pressure;BME280_temperature;BME280_humidity;BME280_pressure;Samples;Min_cycle;Max_cycle;Signal;HPM_P1;HPM_P2
2022/02/21 00:01:00;;;;;;;5.70;1.40;;;7.20;99.90;;;;;;5073080;28;20877;-65
2022/02/21 00:03:30;;;;;;;5.40;0.67;;;7.30;99.90;;;;;;5073325;28;20457;-66
2022/02/21 00:05:57;;;;;;;2.47;1.10;;;7.30;99.90;;;;;;5073297;28;20487;-65
2022/02/21 00:08:23;;;;;;;10.13;1.27;;;7.30;99.90;;;;;;5072859;28;20477;-65
2022/02/21 00:10:50;;;;;;;3.43;0.77;;;7.20;99.90;;;;;;5073293;28;20478;-65
2022/02/21 00:13:17;;;;;;;4.40;1.43;;;7.20;99.90;;;;;;5073179;28;20552;-65
2022/02/21 00:15:44;;;;;;;3.00;1.13;;;7.20;99.90;;;;;;5073250;28;20515;-65
2022/02/21 00:18:12;;;;;;;6.13;1.50;;;7.20;99.90;;;;;;5073215;28;20471;-65
2022/02/21 00:20:39;;;;;;;3.07;1.70;;;7.20;99.90;;;;;;5076887;28;20444;-65
2022/02/21 00:23:07;;;;;;;4.37;0.87;;;7.20;99.90;;;;;;5076730;28;21008;-65
2022/02/21 00:25:34;;;;;;;3.93;1.73;;;7.20;99.90;;;;;;5077048;28;20471;-65
2022/02/21 00:28:01;;;;;;;7.23;1.80;;;7.20;99.90;;;;;;5076942;28;20464;-65
2022/02/21 00:30:28;;;;;;;5.17;1.73;;;7.20;99.90;;;;;;5076678;28;20940;-65
2022/02/21 00:32:55;;;;;;;4.63;1.47;;;7.10;99.90;;;;;;5076653;28;20425;-65
2022/02/21 00:35:23;;;;;;;7.80;2.00;;;7.10;99.90;;;;;;5076919;28;20451;-65
2022/02/21 00:37:50;;;;;;;3.27;1.37;;;7.20;99.90;;;;;;5076784;28;20567;-65
2022/02/21 00:40:17;;;;;;;5.20;1.00;;;7.20;99.90;;;;;;5076763;28;20806;-65
2022/02/21 00:42:44;;;;;;;5.37;1.73;;;7.30;99.90;;;;;;5076665;28;20483;-65
2022/02/21 00:45:11;;;;;;;3.90;1.97;;;7.30;99.90;;;;;;5076364;28;20444;-66
2022/02/21 00:47:39;;;;;;;4.30;1.00;;;7.20;99.90;;;;;;5076245;28;20464;-66
2022/02/21 00:50:07;;;;;;;2.37;0.80;;;7.00;99.90;;;;;;5076534;28;20453;-67
2022/02/21 00:52:36;;;;;;;2.13;0.53;;;6.80;99.90;;;;;;5076250;28;20965;-66
2022/02/21 00:55:02;;;;;;;3.77;1.43;;;6.80;99.90;;;;;;5076380;28;20940;-66
2022/02/21 00:57:29;;;;;;;6.10;1.90;;;6.70;99.90;;;;;;5076516;28;20464;-66
2022/02/21 00:59:56;;;;;;;4.93;1.00;;;6.70;99.90;;;;;;5076433;28;20444;-67
2022/02/21 01:02:23;;;;;;;4.23;1.20;;;6.60;99.90;;;;;;5076235;28;20452;-66
2022/02/21 01:04:49;;;;;;;2.43;0.70;;;6.60;99.90;;;;;;5076372;28;20441;-66
2022/02/21 01:07:16;;;;;;;5.67;1.10;;;6.60;99.90;;;;;;5075875;28;20966;-67
2022/02/21 01:09:44;;;;;;;2.20;1.20;;;6.50;99.90;;;;;;5076302;28;20515;-66
2022/02/21 01:12:11;;;;;;;5.00;0.77;;;6.50;99.90;;;;;;5076231;28;20505;-66
2022/02/21 01:14:38;;;;;;;3.60;1.27;;;6.40;99.90;;;;;;5076245;28;20444;-66
2022/02/21 01:17:05;;;;;;;7.23;1.20;;;6.40;99.90;;;;;;5076199;28;20455;-67
2022/02/21 01:19:31;;;;;;;6.20;2.50;;;6.40;99.90;;;;;;5076499;28;20425;-65
2022/02/21 01:21:58;;;;;;;4.40;0.83;;;6.40;99.90;;;;;;5076161;28;20437;-65
2022/02/21 01:24:25;;;;;;;8.37;1.50;;;6.40;99.90;;;;;;5076091;28;20476;-65
2022/02/21 01:26:53;;;;;;;6.37;1.13;;;6.40;99.90;;;;;;5076101;28;20449;-65
2022/02/21 01:29:20;;;;;;;8.07;1.30;;;6.40;99.90;;;;;;5075604;28;20939;-66
2022/02/21 01:31:47;;;;;;;4.73;1.33;;;6.40;99.90;;;;;;5075951;28;20452;-66
2022/02/21 01:34:14;;;;;;;3.83;1.03;;;6.40;99.90;;;;;;5075665;28;20939;-66
2022/02/21 01:36:41;;;;;;;4.53;1.30;;;6.40;99.90;;;;;;5075771;28;20936;-66
2022/02/21 01:39:08;;;;;;;8.50;1.40;;;6.40;99.90;;;;;;5076200;28;20507;-66
2022/02/21 01:41:35;;;;;;;5.53;1.33;;;6.50;99.90;;;;;;5076098;28;20444;-65
2022/02/21 01:44:08;;;;;;;10.13;1.77;;;6.50;99.90;;;;;;5075865;28;20487;-65
2022/02/21 01:46:35;;;;;;;8.27;1.03;;;6.50;99.90;;;;;;5075664;28;20441;-66
2022/02/21 01:49:02;;;;;;;12.60;2.00;;;6.50;99.90;;;;;;5075468;28;20475;-65
2022/02/21 01:51:30;;;;;;;5.17;1.80;;;6.50;99.90;;;;;;5075679;28;20474;-65
2022/02/21 01:53:57;;;;;;;10.53;1.80;;;6.50;99.90;;;;;;5075408;28;20441;-65
2022/02/21 01:56:25;;;;;;;9.60;2.63;;;6.60;99.90;;;;;;5075542;28;20456;-65
2022/02/21 01:58:52;;;;;;;6.23;2.00;;;6.50;99.90;;;;;;5075306;28;20825;-65
2022/02/21 02:01:20;;;;;;;8.33;1.30;;;6.50;99.90;;;;;;5075296;28;20445;-66
2022/02/21 02:03:47;;;;;;;5.40;1.73;;;6.50;99.90;;;;;;5074910;28;20827;-65
2022/02/21 02:06:15;;;;;;;5.90;2.03;;;6.50;99.90;;;;;;5074851;28;20986;-65
2022/02/21 02:08:42;;;;;;;11.00;1.80;;;6.50;99.60;;;;;;5074709;28;20987;-65
2022/02/21 02:11:09;;;;;;;8.33;2.10;;;6.50;99.90;;;;;;5075065;28;20432;-65
2022/02/21 02:13:36;;;;;;;9.90;2.23;;;6.50;99.50;;;;;;5074996;28;20852;-65
2022/02/21 02:16:03;;;;;;;12.10;2.40;;;6.50;99.40;;;;;;5074920;28;20449;-65
2022/02/21 02:18:31;;;;;;;6.27;1.80;;;6.50;99.30;;;;;;5074577;28;20837;-65
2022/02/21 02:20:58;;;;;;;4.90;1.57;;;6.50;99.00;;;;;;5074907;28;20444;-65
2022/02/21 02:23:26;;;;;;;2.93;1.57;;;6.40;99.60;;;;;;5074721;28;20476;-65
2022/02/21 02:25:53;;;;;;;7.30;1.53;;;6.40;99.80;;;;;;5074510;28;20966;-65
2022/02/21 02:28:20;;;;;;;9.70;3.20;;;6.40;99.90;;;;;;5074646;28;20467;-65
2022/02/21 02:30:46;;;;;;;7.57;1.83;;;6.40;99.90;;;;;;5074693;28;20782;-65
2022/02/21 02:33:13;;;;;;;4.13;1.50;;;6.40;99.90;;;;;;5074673;28;20447;-65
2022/02/21 02:35:40;;;;;;;12.13;1.60;;;6.40;99.90;;;;;;5074565;28;20816;-65
2022/02/21 02:38:07;;;;;;;3.97;1.17;;;6.30;99.90;;;;;;5074536;28;20510;-65
2022/02/21 02:40:35;;;;;;;2.83;1.50;;;6.20;99.90;;;;;;5074527;28;20440;-65
2022/02/21 02:43:01;;;;;;;5.50;1.13;;;6.20;99.90;;;;;;5073540;28;20822;-65
2022/02/21 02:45:28;;;;;;;4.77;1.00;;;6.10;99.90;;;;;;5075862;28;20522;-65
2022/02/21 02:47:55;;;;;;;3.47;1.00;;;6.00;99.90;;;;;;5074564;28;20468;-65
2022/02/21 02:50:22;;;;;;;6.67;1.60;;;5.80;99.90;;;;;;5074538;28;20443;-65
2022/02/21 02:52:49;;;;;;;7.27;1.27;;;5.80;99.90;;;;;;5074415;28;20448;-65
2022/02/21 02:55:16;;;;;;;4.27;0.87;;;5.80;99.90;;;;;;5074530;28;20455;-65
2022/02/21 02:57:44;;;;;;;7.30;2.10;;;5.70;99.90;;;;;;5073908;28;20465;-65
2022/02/21 03:00:13;;;;;;;9.47;1.20;;;5.70;99.90;;;;;;5074247;28;20476;-65
2022/02/21 03:02:40;;;;;;;6.03;1.23;;;5.70;99.90;;;;;;5073961;28;20866;-65
2022/02/21 03:05:08;;;;;;;5.10;1.63;;;5.70;99.90;;;;;;5074139;28;20512;-65
2022/02/21 03:07:34;;;;;;;4.40;1.30;;;5.70;99.90;;;;;;5073826;28;20480;-65
2022/02/21 03:10:01;;;;;;;9.63;2.93;;;5.70;99.90;;;;;;5074185;28;20448;-65
2022/02/21 03:12:28;;;;;;;3.67;1.20;;;5.70;99.90;;;;;;5074147;28;20813;-65
2022/02/21 03:14:57;;;;;;;14.90;2.07;;;5.70;99.90;;;;;;5074016;28;20444;-65
2022/02/21 03:17:24;;;;;;;2.73;1.27;;;5.70;99.90;;;;;;5074019;28;20499;-65
2022/02/21 03:19:51;;;;;;;6.00;1.63;;;5.70;99.90;;;;;;5073946;28;20480;-65
2022/02/21 03:22:18;;;;;;;7.80;2.10;;;5.70;99.90;;;;;;5073632;28;20806;-65
2022/02/21 03:24:44;;;;;;;10.87;2.17;;;5.80;99.90;;;;;;5073992;28;20485;-65
2022/02/21 03:27:11;;;;;;;8.73;2.80;;;5.80;99.90;;;;;;5073828;28;20445;-66
2022/02/21 03:29:38;;;;;;;5.70;1.70;;;5.80;99.90;;;;;;5073737;28;20448;-65
2022/02/21 03:32:07;;;;;;;9.77;1.80;;;5.90;99.90;;;;;;5073823;28;20441;-65
2022/02/21 03:34:34;;;;;;;7.97;1.77;;;5.90;99.90;;;;;;5073796;28;20777;-65
2022/02/21 03:37:01;;;;;;;4.30;1.10;;;5.90;99.90;;;;;;5073790;28;20788;-66
2022/02/21 03:39:28;;;;;;;3.60;0.60;;;5.90;99.90;;;;;;5073873;28;20451;-65
2022/02/21 03:41:55;;;;;;;2.03;1.00;;;5.50;99.90;;;;;;5073883;28;20460;-65
2022/02/21 03:44:21;;;;;;;2.20;0.80;;;5.20;99.90;;;;;;5073451;28;20823;-65
2022/02/21 03:46:48;;;;;;;2.50;1.00;;;4.80;99.90;;;;;;5073507;28;20425;-65
2022/02/21 03:49:16;;;;;;;1.50;0.70;;;4.60;99.90;;;;;;5073698;28;20465;-65
2022/02/21 03:51:43;;;;;;;2.93;0.50;;;4.40;99.90;;;;;;5073349;28;20814;-65
2022/02/21 03:54:10;;;;;;;6.43;1.10;;;4.20;99.90;;;;;;5072462;28;20447;-65
2022/02/21 03:56:37;;;;;;;3.27;1.00;;;4.10;99.90;;;;;;5073646;28;20527;-65
2022/02/21 03:59:04;;;;;;;4.10;1.17;;;4.10;99.90;;;;;;5073561;28;20513;-66
2022/02/21 04:01:31;;;;;;;4.37;0.83;;;4.10;99.90;;;;;;5073815;28;20447;-66
2022/02/21 04:03:58;;;;;;;5.23;1.33;;;4.00;99.90;;;;;;5073263;28;20995;-65
2022/02/21 04:06:26;;;;;;;4.57;1.10;;;3.90;99.90;;;;;;5073458;28;20464;-65
2022/02/21 04:08:53;;;;;;;3.40;1.20;;;3.80;99.90;;;;;;5073395;28;20469;-64
2022/02/21 04:11:19;;;;;;;2.50;1.03;;;3.70;99.90;;;;;;5073541;28;20453;-65
2022/02/21 04:13:46;;;;;;;3.90;1.60;;;3.70;99.90;;;;;;5073414;28;20921;-64
2022/02/21 04:16:13;;;;;;;6.07;1.13;;;3.60;99.90;;;;;;5073368;28;20445;-64
2022/02/21 04:18:39;;;;;;;8.43;1.37;;;3.70;99.90;;;;;;5073120;28;20472;-65
2022/02/21 04:21:07;;;;;;;4.30;1.50;;;3.70;99.90;;;;;;5073216;28;20456;-65
2022/02/21 04:23:35;;;;;;;8.50;1.57;;;3.80;99.90;;;;;;5073404;28;20491;-65
2022/02/21 04:26:01;;;;;;;5.60;1.60;;;3.90;99.90;;;;;;5073054;28;20948;-65
2022/02/21 04:28:28;;;;;;;5.27;2.17;;;4.00;99.90;;;;;;5073269;28;20495;-65
2022/02/21 04:30:55;;;;;;;4.27;1.40;;;4.00;99.90;;;;;;5073553;28;20445;-65
2022/02/21 04:33:21;;;;;;;8.17;1.90;;;4.10;99.90;;;;;;5073609;28;20457;-65
2022/02/21 04:35:48;;;;;;;10.43;2.07;;;4.10;99.90;;;;;;5073469;28;20453;-65
2022/02/21 04:38:15;;;;;;;10.23;2.30;;;4.10;99.90;;;;;;5072996;28;21007;-65
2022/02/21 04:40:46;;;;;;;7.17;2.20;;;4.10;99.90;;;;;;5073419;28;20445;-65
2022/02/21 04:43:12;;;;;;;6.23;2.20;;;4.20;99.90;;;;;;5073236;28;20468;-65
2022/02/21 04:45:39;;;;;;;11.07;3.27;;;4.20;99.90;;;;;;5073347;28;20480;-65
2022/02/21 04:48:06;;;;;;;7.73;2.13;;;4.30;99.90;;;;;;5073205;28;20472;-65
2022/02/21 04:50:33;;;;;;;6.80;1.80;;;4.40;99.90;;;;;;5073126;28;20452;-65
2022/02/21 04:53:00;;;;;;;6.43;1.90;;;4.50;99.90;;;;;;5086592;28;20444;-65
2022/02/21 04:55:27;;;;;;;4.00;1.67;;;4.60;99.90;;;;;;5073347;28;20441;-65
2022/02/21 04:57:55;;;;;;;9.50;1.90;;;4.60;99.90;;;;;;5072821;28;20496;-66
2022/02/21 05:00:21;;;;;;;5.90;1.60;;;4.60;99.90;;;;;;5072969;28;20453;-66
2022/02/21 05:02:48;;;;;;;6.53;1.60;;;4.40;99.90;;;;;;5072788;28;20459;-66
2022/02/21 05:05:15;;;;;;;7.13;2.60;;;4.40;99.90;;;;;;5074634;28;20476;-66
2022/02/21 05:07:43;;;;;;;5.17;2.30;;;4.40;99.90;;;;;;5076449;28;20537;-64
2022/02/21 05:10:10;;;;;;;7.77;1.93;;;4.40;99.90;;;;;;5076555;28;20444;-63
2022/02/21 05:12:37;;;;;;;9.93;2.33;;;4.40;99.90;;;;;;5076489;28;20441;-64
2022/02/21 05:15:07;;;;;;;7.60;2.00;;;4.40;99.90;;;;;;5076641;28;20440;-64
2022/02/21 05:17:33;;;;;;;10.30;2.00;;;4.50;99.90;;;;;;5076601;28;20963;-65
2022/02/21 05:20:00;;;;;;;9.03;1.80;;;4.50;99.90;;;;;;5077049;28;20800;-65
2022/02/21 05:22:27;;;;;;;9.47;1.80;;;4.50;99.90;;;;;;5076855;28;20440;-65
2022/02/21 05:24:53;;;;;;;7.17;2.03;;;4.60;99.90;;;;;;5076722;28;20817;-64
2022/02/21 05:27:20;;;;;;;13.83;2.30;;;4.60;99.90;;;;;;5076298;28;20467;-66
2022/02/21 05:29:47;;;;;;;5.80;2.07;;;4.60;99.90;;;;;;5075916;28;20424;-65
2022/02/21 05:32:15;;;;;;;7.80;1.10;;;4.50;99.90;;;;;;5075967;28;20452;-65
2022/02/21 05:34:42;;;;;;;4.40;0.90;;;4.10;99.90;;;;;;5076103;28;20797;-64
2022/02/21 05:37:09;;;;;;;11.07;1.70;;;3.70;99.90;;;;;;5075778;28;20523;-65
2022/02/21 05:39:36;;;;;;;4.57;1.03;;;3.50;99.90;;;;;;5075782;28;20498;-65
2022/02/21 05:42:03;;;;;;;7.47;1.80;;;3.40;99.90;;;;;;5075428;28;20445;-65
2022/02/21 05:44:30;;;;;;;2.47;1.20;;;3.40;99.90;;;;;;5075667;28;20461;-64
2022/02/21 05:46:57;;;;;;;5.33;1.90;;;3.40;99.90;;;;;;5075301;28;20444;-64
2022/02/21 05:49:25;;;;;;;7.47;2.37;;;3.50;99.90;;;;;;5075602;28;20452;-65
2022/02/21 05:51:52;;;;;;;6.77;2.10;;;3.50;99.90;;;;;;5075476;28;20445;-64
2022/02/21 05:54:18;;;;;;;7.80;1.97;;;3.60;99.90;;;;;;5075328;28;20947;-64
2022/02/21 05:56:45;;;;;;;5.33;1.50;;;3.70;99.90;;;;;;5075162;28;20436;-64
2022/02/21 05:59:12;;;;;;;2.57;1.37;;;3.80;99.90;;;;;;5075324;28;20460;-64
2022/02/21 06:01:39;;;;;;;2.80;2.07;;;3.90;99.90;;;;;;5076200;28;20445;-64
2022/02/21 06:04:06;;;;;;;5.23;1.90;;;3.80;99.90;;;;;;5075255;28;20488;-64
2022/02/21 06:06:34;;;;;;;3.40;1.70;;;3.80;99.90;;;;;;5075114;28;20642;-64
2022/02/21 06:09:01;;;;;;;11.23;2.20;;;3.70;99.90;;;;;;5075221;28;20456;-64
2022/02/21 06:11:28;;;;;;;9.80;1.93;;;3.70;99.90;;;;;;5075120;28;20473;-64
2022/02/21 06:13:55;;;;;;;6.73;2.17;;;3.70;99.90;;;;;;5075243;28;20577;-64
2022/02/21 06:16:22;;;;;;;6.37;2.27;;;3.70;99.90;;;;;;5074220;28;20453;-64
2022/02/21 06:18:49;;;;;;;7.40;2.13;;;3.70;99.90;;;;;;5074678;28;20471;-64
2022/02/21 06:21:16;;;;;;;12.37;4.37;;;3.70;99.90;;;;;;5074951;28;20448;-64
2022/02/21 06:23:44;;;;;;;8.70;3.07;;;3.70;99.90;;;;;;5074950;28;20456;-64
2022/02/21 06:26:11;;;;;;;12.00;2.77;;;3.70;99.90;;;;;;5075321;28;20476;-64
2022/02/21 06:28:37;;;;;;;10.03;3.73;;;3.70;99.90;;;;;;5074689;28;20472;-65
2022/02/21 06:31:08;;;;;;;9.07;2.30;;;3.70;99.90;;;;;;5074856;28;20451;-64
2022/02/21 06:33:35;;;;;;;6.77;1.60;;;3.80;99.90;;;;;;5074796;28;20456;-64
2022/02/21 06:36:02;;;;;;;4.57;1.77;;;3.80;99.90;;;;;;5074408;28;20467;-64
2022/02/21 06:38:28;;;;;;;8.80;1.90;;;3.80;99.90;;;;;;5074623;28;20468;-65
2022/02/21 06:40:57;;;;;;;9.47;2.60;;;3.90;99.90;;;;;;5074698;28;20449;-65
2022/02/21 06:43:23;;;;;;;8.70;2.07;;;3.90;99.90;;;;;;5074333;28;20817;-65
2022/02/21 06:45:50;;;;;;;10.00;2.20;;;3.90;99.90;;;;;;5075478;28;20488;-64
2022/02/21 06:48:17;;;;;;;7.60;3.50;;;4.00;99.90;;;;;;5074163;28;20843;-65
2022/02/21 06:50:43;;;;;;;11.47;2.33;;;4.00;99.90;;;;;;5074468;28;20440;-65
2022/02/21 06:53:10;;;;;;;10.33;2.83;;;4.10;99.90;;;;;;5074480;28;20443;-66
2022/02/21 06:55:37;;;;;;;7.20;2.23;;;4.20;99.90;;;;;;5074268;28;20445;-66
2022/02/21 06:58:05;;;;;;;11.17;2.20;;;4.20;99.90;;;;;;5074200;28;20472;-65
2022/02/21 07:00:31;;;;;;;11.90;2.40;;;4.30;99.90;;;;;;5074349;28;20445;-65
2022/02/21 07:02:58;;;;;;;11.33;2.87;;;4.50;99.90;;;;;;5074291;28;20775;-65
2022/02/21 07:05:25;;;;;;;9.50;2.03;;;4.60;99.90;;;;;;5074105;28;20562;-65
2022/02/21 07:07:52;;;;;;;8.13;2.83;;;4.70;99.90;;;;;;5073574;28;20488;-66
2022/02/21 07:10:18;;;;;;;12.40;2.73;;;4.80;99.90;;;;;;5074147;28;20444;-65
2022/02/21 07:12:45;;;;;;;9.60;3.10;;;4.80;99.90;;;;;;5073727;28;20955;-65
2022/02/21 07:15:13;;;;;;;10.53;2.70;;;4.90;99.90;;;;;;5074012;28;20441;-65
2022/02/21 07:17:41;;;;;;;16.03;2.50;;;5.00;99.90;;;;;;5073646;28;20975;-65
2022/02/21 07:20:12;;;;;;;7.80;1.90;;;5.00;99.90;;;;;;5073929;28;20455;-65
2022/02/21 07:22:40;;;;;;;11.57;2.23;;;5.10;99.90;;;;;;5073874;28;20433;-65
2022/02/21 07:25:08;;;;;;;9.17;2.50;;;5.20;99.90;;;;;;5073805;28;20530;-65
2022/02/21 07:27:42;;;;;;;13.80;2.07;;;5.20;99.90;;;;;;5073576;28;20475;-66
2022/02/21 07:30:10;;;;;;;10.00;2.73;;;5.20;99.90;;;;;;5073544;28;20904;-65
2022/02/21 07:32:38;;;;;;;4.87;2.13;;;5.30;99.90;;;;;;5073787;28;20453;-65
2022/02/21 07:35:06;;;;;;;8.10;2.00;;;5.30;99.90;;;;;;5073834;28;20441;-65
2022/02/21 07:37:33;;;;;;;8.57;2.07;;;5.40;99.90;;;;;;5073951;28;20480;-65
2022/02/21 07:39:59;;;;;;;6.83;2.20;;;5.50;99.90;;;;;;5073437;28;20889;-65
2022/02/21 07:42:26;;;;;;;6.80;1.80;;;5.40;99.90;;;;;;5073970;28;20448;-65
2022/02/21 07:44:53;;;;;;;10.97;2.00;;;5.40;99.90;;;;;;5073325;28;20476;-65
2022/02/21 07:47:20;;;;;;;8.80;1.93;;;5.50;99.80;;;;;;5073823;28;20454;-65
2022/02/21 07:49:48;;;;;;;6.37;2.00;;;5.50;99.40;;;;;;5073511;28;20959;-65
2022/02/21 07:52:15;;;;;;;7.13;2.17;;;5.50;99.20;;;;;;5073820;28;20433;-65
2022/02/21 07:54:42;;;;;;;4.83;1.90;;;5.50;99.00;;;;;;5073709;28;20451;-65
2022/02/21 07:57:09;;;;;;;10.53;2.10;;;5.60;98.90;;;;;;5073704;28;20451;-66
2022/02/21 07:59:36;;;;;;;6.33;1.90;;;5.60;99.40;;;;;;5074014;28;20448;-65
2022/02/21 08:02:03;;;;;;;15.07;2.10;;;5.60;99.10;;;;;;5073932;28;20536;-65
2022/02/21 08:04:30;;;;;;;8.43;1.80;;;5.60;98.70;;;;;;5074141;28;20523;-65
2022/02/21 08:06:58;;;;;;;8.30;2.80;;;5.60;98.80;;;;;;5073309;28;20456;-65
2022/02/21 08:09:24;;;;;;;9.83;1.80;;;5.70;98.80;;;;;;5073545;28;20469;-65
2022/02/21 08:11:51;;;;;;;8.30;1.80;;;5.70;99.30;;;;;;5073737;28;20448;-65
2022/02/21 08:14:18;;;;;;;7.40;1.63;;;5.70;98.50;;;;;;5074006;28;20441;-65
2022/02/21 08:16:44;;;;;;;11.40;2.30;;;5.70;99.20;;;;;;5074228;28;20499;-65
2022/02/21 08:19:11;;;;;;;8.03;2.30;;;5.60;99.30;;;;;;5072991;28;20456;-65
2022/02/21 08:21:38;;;;;;;7.50;2.20;;;5.70;99.00;;;;;;5073469;28;20437;-65
2022/02/21 08:24:07;;;;;;;7.00;1.77;;;5.60;98.80;;;;;;5073266;28;20858;-65
2022/02/21 08:26:35;;;;;;;4.90;1.80;;;5.70;98.90;;;;;;5073267;28;20481;-65
2022/02/21 08:29:02;;;;;;;3.90;1.17;;;5.70;98.40;;;;;;5073355;28;20469;-65
2022/02/21 08:31:29;;;;;;;7.53;1.80;;;5.70;98.60;;;;;;5073423;28;20506;-65
2022/02/21 08:33:55;;;;;;;5.43;1.80;;;5.70;99.10;;;;;;5073126;28;20445;-65
2022/02/21 08:36:22;;;;;;;12.13;1.80;;;5.70;98.90;;;;;;5073555;28;20483;-65
2022/02/21 08:38:49;;;;;;;12.60;2.63;;;5.80;98.90;;;;;;5073433;28;20456;-65
2022/02/21 08:41:17;;;;;;;4.20;2.03;;;5.80;99.20;;;;;;5076485;28;20440;-65
2022/02/21 08:43:44;;;;;;;12.13;2.60;;;5.90;98.90;;;;;;5078053;28;20448;-65
2022/02/21 08:46:11;;;;;;;6.37;2.03;;;5.90;98.40;;;;;;5077153;28;20487;-65
2022/02/21 08:48:38;;;;;;;11.03;2.00;;;5.90;98.60;;;;;;5076878;28;20506;-65
2022/02/21 08:51:05;;;;;;;7.10;1.90;;;5.90;97.80;;;;;;5077285;28;20452;-66
2022/02/21 08:53:32;;;;;;;8.40;2.10;;;5.90;98.00;;;;;;5077545;28;20444;-65
2022/02/21 08:55:58;;;;;;;9.63;1.50;;;6.00;97.90;;;;;;5077592;28;20464;-65
2022/02/21 08:58:27;;;;;;;9.57;2.00;;;6.00;97.80;;;;;;5077444;28;20468;-66
2022/02/21 09:00:54;;;;;;;9.33;2.03;;;6.00;97.20;;;;;;5076798;28;20806;-65
2022/02/21 09:03:26;;;;;;;6.67;1.70;;;6.10;97.80;;;;;;5076343;28;20448;-65
2022/02/21 09:05:53;;;;;;;4.63;1.67;;;6.10;96.80;;;;;;5076218;28;20959;-65
2022/02/21 09:08:21;;;;;;;10.00;2.00;;;6.20;96.70;;;;;;5076092;28;20487;-65
2022/02/21 09:10:48;;;;;;;8.63;1.70;;;6.30;97.30;;;;;;5076266;28;20475;-65
2022/02/21 09:13:15;;;;;;;14.60;1.90;;;6.30;96.70;;;;;;5076367;28;20457;-65
2022/02/21 09:15:43;;;;;;;6.10;1.47;;;6.40;96.80;;;;;;5076185;28;20451;-65
2022/02/21 09:18:10;;;;;;;8.40;1.83;;;6.50;95.90;;;;;;5075795;28;20896;-65
2022/02/21 09:20:38;;;;;;;3.47;1.20;;;6.60;96.10;;;;;;5076112;28;20456;-65
2022/02/21 09:23:05;;;;;;;7.83;2.43;;;6.70;95.60;;;;;;5076115;28;20517;-65
2022/02/21 09:25:31;;;;;;;3.10;1.60;;;6.70;95.80;;;;;;5076027;28;20484;-65
2022/02/21 09:27:58;;;;;;;12.20;2.67;;;6.80;96.10;;;;;;5075985;28;20469;-65
2022/02/21 09:30:25;;;;;;;12.87;1.77;;;6.90;95.30;;;;;;5075981;28;20481;-65
2022/02/21 09:32:53;;;;;;;9.97;2.70;;;7.10;94.70;;;;;;5075553;28;20936;-65
2022/02/21 09:35:21;;;;;;;5.07;1.70;;;7.10;95.70;;;;;;5075775;28;20449;-65
2022/02/21 09:37:48;;;;;;;6.13;2.03;;;7.10;94.80;;;;;;5075685;28;20499;-65
2022/02/21 09:40:15;;;;;;;11.37;1.90;;;7.00;94.90;;;;;;5075833;28;20445;-65
2022/02/21 09:42:42;;;;;;;10.30;2.30;;;7.10;95.50;;;;;;5075450;28;20936;-65
2022/02/21 09:45:10;;;;;;;7.10;1.37;;;7.00;95.30;;;;;;5075678;28;20589;-65
2022/02/21 09:47:37;;;;;;;15.90;2.50;;;6.90;95.10;;;;;;5075504;28;20469;-65
2022/02/21 09:50:07;;;;;;;13.23;1.70;;;6.90;95.40;;;;;;5075267;28;20946;-65
2022/02/21 09:52:34;;;;;;;5.23;2.07;;;6.90;95.60;;;;;;5075181;28;20900;-66
2022/02/21 09:55:01;;;;;;;12.07;2.43;;;6.90;95.90;;;;;;5075499;28;20448;-66
2022/02/21 09:57:28;;;;;;;13.20;3.00;;;6.90;95.60;;;;;;5076114;28;20480;-66
2022/02/21 09:59:55;;;;;;;8.03;1.83;;;7.00;96.50;;;;;;5075012;28;20939;-65
2022/02/21 10:02:23;;;;;;;7.37;1.63;;;6.90;96.00;;;;;;5075393;28;20459;-66
2022/02/21 10:05:11;;;;;;;8.60;2.10;;;6.90;97.40;;;;;;5075159;28;20817;-65
2022/02/21 10:07:38;;;;;;;11.37;3.40;;;6.90;97.00;;;;;;5074907;28;20892;-65
2022/02/21 10:10:06;;;;;;;8.10;2.07;;;6.80;97.40;;;;;;5075207;28;20479;-65
2022/02/21 10:12:32;;;;;;;14.40;1.97;;;6.90;97.80;;;;;;5075167;28;20435;-65
2022/02/21 10:15:14;;;;;;;11.00;2.10;;;6.80;98.20;;;;;;5075039;28;20453;-65
2022/02/21 10:17:41;;;;;;;11.00;2.70;;;6.80;98.60;;;;;;5074976;28;20468;-65
2022/02/21 10:20:09;;;;;;;11.77;3.17;;;6.80;99.10;;;;;;5074957;28;20460;-65
2022/02/21 10:22:37;;;;;;;15.67;2.47;;;6.80;99.90;;;;;;5074910;28;20449;-65
2022/02/21 10:25:15;;;;;;;9.07;2.20;;;6.70;99.90;;;;;;5074903;28;20448;-66
2022/02/21 10:27:42;;;;;;;12.47;2.50;;;6.60;99.90;;;;;;5074765;28;20457;-66
2022/02/21 10:30:16;;;;;;;8.53;2.10;;;6.50;99.90;;;;;;5074722;28;20453;-65
2022/02/21 10:32:44;;;;;;;9.57;1.97;;;6.20;99.90;;;;;;5074379;28;20870;-65
2022/02/21 10:35:13;;;;;;;14.87;2.50;;;6.10;99.90;;;;;;5074558;28;20496;-65
2022/02/21 10:37:45;;;;;;;7.33;2.37;;;5.90;99.90;;;;;;5074417;28;20475;-65
2022/02/21 10:40:14;;;;;;;12.93;3.77;;;5.90;99.90;;;;;;5074582;28;20449;-65
2022/02/21 10:42:43;;;;;;;13.50;2.80;;;5.80;99.90;;;;;;5074439;28;20440;-66
2022/02/21 10:45:15;;;;;;;13.07;2.97;;;5.80;99.90;;;;;;5074327;28;20452;-66
2022/02/21 10:47:57;;;;;;;9.90;2.10;;;5.80;99.90;;;;;;5074005;28;20460;-66
2022/02/21 10:50:24;;;;;;;10.10;1.60;;;5.80;99.90;;;;;;5074247;28;20440;-66
2022/02/21 10:52:52;;;;;;;13.77;2.70;;;5.80;99.90;;;;;;5074316;28;20801;-66
2022/02/21 10:55:19;;;;;;;7.43;2.10;;;5.90;99.90;;;;;;5074214;28;20448;-66
2022/02/21 10:57:47;;;;;;;10.30;2.87;;;6.00;99.90;;;;;;5073831;28;21002;-66
2022/02/21 11:00:15;;;;;;;9.30;2.43;;;5.90;99.90;;;;;;5074645;28;20558;-66
2022/02/21 11:02:45;;;;;;;11.43;3.13;;;6.00;99.90;;;;;;5073307;28;20448;-66
2022/02/21 11:05:13;;;;;;;5.07;1.80;;;6.10;99.90;;;;;;5074086;28;20470;-66
2022/02/21 11:07:41;;;;;;;9.03;2.37;;;6.20;99.90;;;;;;5073553;28;20488;-66
2022/02/21 11:10:10;;;;;;;7.60;2.00;;;6.40;99.90;;;;;;5074170;28;20472;-66
2022/02/21 11:12:39;;;;;;;8.87;1.90;;;6.40;99.90;;;;;;5074078;28;20441;-65
2022/02/21 11:15:08;;;;;;;7.73;2.10;;;6.40;99.90;;;;;;5073943;28;20456;-66
2022/02/21 11:17:37;;;;;;;7.63;1.70;;;6.30;99.90;;;;;;5073726;28;20474;-66
2022/02/21 11:20:05;;;;;;;16.70;3.73;;;6.30;99.90;;;;;;5073326;28;21021;-65
2022/02/21 11:22:33;;;;;;;7.73;2.30;;;6.30;99.90;;;;;;5073716;28;20459;-66
2022/02/21 11:25:07;;;;;;;12.50;2.90;;;6.30;99.90;;;;;;5073995;28;20448;-66
2022/02/21 11:27:43;;;;;;;12.30;1.87;;;6.20;99.90;;;;;;5073503;28;20487;-65
2022/02/21 11:30:12;;;;;;;5.30;1.70;;;6.20;99.90;;;;;;5073615;28;20456;-65
2022/02/21 11:32:40;;;;;;;8.70;2.50;;;6.10;99.90;;;;;;5073588;28;20406;-65
2022/02/21 11:35:13;;;;;;;5.00;1.83;;;6.20;99.90;;;;;;5073384;28;20452;-66
2022/02/21 11:37:41;;;;;;;6.83;1.83;;;6.00;99.90;;;;;;5073243;28;20461;-66
2022/02/21 11:40:08;;;;;;;10.63;2.37;;;6.00;99.90;;;;;;5073178;28;20939;-66
2022/02/21 11:42:38;;;;;;;10.30;2.03;;;6.00;99.90;;;;;;5073190;28;20932;-66
2022/02/21 11:45:20;;;;;;;6.23;1.80;;;6.00;99.90;;;;;;5073518;28;20457;-66
2022/02/21 11:47:47;;;;;;;12.83;2.57;;;6.00;99.90;;;;;;5073291;28;20491;-66
2022/02/21 11:50:26;;;;;;;8.23;2.20;;;6.00;99.90;;;;;;5073449;28;20425;-65
2022/02/21 11:52:54;;;;;;;12.43;3.07;;;6.00;99.90;;;;;;5073494;28;20440;-65
2022/02/21 11:55:40;;;;;;;8.33;2.77;;;6.00;99.90;;;;;;5072995;28;20958;-66
2022/02/21 11:58:45;;;;;;;14.03;2.93;;;6.00;99.90;;;;;;5073312;28;20475;-67
2022/02/21 12:01:20;;;;;;;9.17;2.97;;;6.10;99.90;;;;;;5073308;28;20439;-68
2022/02/21 12:04:15;;;;;;;9.80;2.37;;;6.10;99.90;;;;;;5073869;28;20452;-66
2022/02/21 12:06:53;;;;;;;14.87;3.30;;;6.20;99.90;;;;;;5066142;28;20484;-68
2022/02/21 12:09:20;;;;;;;10.73;2.50;;;6.20;99.90;;;;;;5072777;28;20476;-66
2022/02/21 12:11:47;;;;;;;11.10;3.67;;;6.30;99.90;;;;;;5073262;28;20448;-66
2022/02/21 12:14:17;;;;;;;12.27;2.70;;;6.30;99.90;;;;;;5073034;28;20445;-65
2022/02/21 12:17:05;;;;;;;11.90;3.33;;;6.30;99.90;;;;;;5078207;28;20811;-65
2022/02/21 12:19:34;;;;;;;13.93;3.50;;;6.40;99.90;;;;;;5078598;28;20618;-66
2022/02/21 12:22:17;;;;;;;14.00;4.03;;;6.40;99.90;;;;;;5079087;28;20444;-65
2022/02/21 12:25:10;;;;;;;16.57;3.37;;;6.30;99.90;;;;;;5078316;28;20792;-65
2022/02/21 12:27:39;;;;;;;15.90;3.47;;;6.40;99.90;;;;;;5078535;28;20832;-65
2022/02/21 12:30:06;;;;;;;12.07;2.67;;;6.40;99.90;;;;;;5080170;28;20451;-65
2022/02/21 12:32:42;;;;;;;5.63;2.30;;;6.40;99.90;;;;;;5082553;28;20908;-66
2022/02/21 12:35:09;;;;;;;10.37;3.47;;;6.50;99.90;;;;;;5082178;28;20437;-68
2022/02/21 12:37:37;;;;;;;12.27;3.40;;;6.50;99.90;;;;;;5081826;28;20461;-66
2022/02/21 12:40:08;;;;;;;11.30;2.93;;;6.60;99.90;;;;;;5079350;28;20465;-65
2022/02/21 12:42:35;;;;;;;10.70;2.80;;;6.60;99.90;;;;;;5078543;28;20807;-65
2022/02/21 12:45:02;;;;;;;7.20;2.30;;;6.70;99.90;;;;;;5078334;28;20432;-65
2022/02/21 12:47:28;;;;;;;9.03;2.50;;;6.70;99.90;;;;;;5077707;28;20495;-66
2022/02/21 12:49:56;;;;;;;9.20;2.83;;;6.70;99.90;;;;;;5077624;28;20452;-66
2022/02/21 12:52:23;;;;;;;13.07;2.97;;;6.70;99.90;;;;;;5077726;28;20447;-65
2022/02/21 12:54:51;;;;;;;16.47;3.07;;;6.60;99.90;;;;;;5077763;28;20448;-65
2022/02/21 12:57:19;;;;;;;11.40;3.33;;;6.70;99.90;;;;;;5077613;28;20817;-66
2022/02/21 12:59:48;;;;;;;11.97;2.53;;;6.70;99.90;;;;;;5077588;28;20463;-66